KLYO/LYO METAR and TAF weather

Enter ICAO airport designator
Station Type Date Time Source
KLYO METAR 2019/06/18 16:35 UTC NOAA

KLYO 181635Z AUTO 29007KT 10SM -RA SCT011 BKN024 OVC040 19/18 A2998 RMK AO2 P0004 T01880178


Station Type Date Time Source
KLYO Decoded METAR 2019/06/18 16:35 UTC NOAA

Station name not available
Jun 18, 2019 - 12:35 PM EDT / 2019.06.18 1635 UTC
Wind: from the WNW (290 degrees) at 8 MPH (7 KT):0
Visibility: 10 mile(s):0
Sky conditions: overcast
Weather: light rain
Precipitation last hour: 0.04 inches
Temperature: 65.8 F (18.8 C)
Dew Point: 64.0 F (17.8 C)
Relative Humidity: 93%
Pressure (altimeter): 29.98 in. Hg (1015 hPa)
ob: KLYO 181635Z AUTO 29007KT 10SM -RA SCT011 BKN024 OVC040 19/18 A2998 RMK AO2 P0004 T01880178
cycle: 16

Station Type Date Time Source
KLYO TAF UTC NOAA

Error!

Example: see airport list